EGMC - Southend-On-Sea
Distance from station: E 5mi, 14km
Updated: 08/21/2018 5:20pm
Clear
Clear
 Wind from SW
Wind: SW 6 mph , 9 km/h
Temperature: 61°F , 16°C
Dew Point: 57°F , 14°C
Humidity: 88%
Barometer: 30.03 inHg , 1017 hPa
Summary: Clear
Visibility: greater than 7 miles , 10 km
2018/08/22 00:20 EGMC 220020Z 22005KT CAVOK 16/14 Q1017